sensor_id;sensor_type;location;lat;lon;timestamp;temperature;humidity
32839;DHT22;19182;41.820;12.808;2024-01-27T00:00:27;9.70;99.90
32839;DHT22;19182;41.820;12.808;2024-01-27T00:02:53;9.70;99.90
32839;DHT22;19182;41.820;12.808;2024-01-27T00:05:21;9.70;99.90
32839;DHT22;19182;41.820;12.808;2024-01-27T00:07:46;9.70;99.90
32839;DHT22;19182;41.820;12.808;2024-01-27T00:10:13;9.70;99.90
32839;DHT22;19182;41.820;12.808;2024-01-27T00:12:40;9.80;99.90
32839;DHT22;19182;41.820;12.808;2024-01-27T00:15:07;9.70;99.90
32839;DHT22;19182;41.820;12.808;2024-01-27T00:17:34;9.70;99.90
32839;DHT22;19182;41.820;12.808;2024-01-27T00:20:01;9.70;99.90
32839;DHT22;19182;41.820;12.808;2024-01-27T00:22:27;9.80;99.90
32839;DHT22;19182;41.820;12.808;2024-01-27T00:24:54;9.80;99.90
32839;DHT22;19182;41.820;12.808;2024-01-27T00:27:20;9.70;99.90
32839;DHT22;19182;41.820;12.808;2024-01-27T00:29:46;9.70;99.90
32839;DHT22;19182;41.820;12.808;2024-01-27T00:32:13;9.70;99.90
32839;DHT22;19182;41.820;12.808;2024-01-27T00:34:39;9.60;99.90
32839;DHT22;19182;41.820;12.808;2024-01-27T00:37:06;9.60;99.90
32839;DHT22;19182;41.820;12.808;2024-01-27T00:39:32;9.60;99.90
32839;DHT22;19182;41.820;12.808;2024-01-27T00:42:01;9.50;99.90
32839;DHT22;19182;41.820;12.808;2024-01-27T00:44:27;9.60;99.90
32839;DHT22;19182;41.820;12.808;2024-01-27T00:46:53;9.60;99.90
32839;DHT22;19182;41.820;12.808;2024-01-27T00:49:19;9.60;99.90
32839;DHT22;19182;41.820;12.808;2024-01-27T00:51:45;9.60;99.90
32839;DHT22;19182;41.820;12.808;2024-01-27T00:54:11;9.60;99.90
32839;DHT22;19182;41.820;12.808;2024-01-27T00:56:37;9.60;99.90
32839;DHT22;19182;41.820;12.808;2024-01-27T00:59:03;9.60;99.90
32839;DHT22;19182;41.820;12.808;2024-01-27T01:01:29;9.60;99.90
32839;DHT22;19182;41.820;12.808;2024-01-27T01:03:55;7.30;99.90
32839;DHT22;19182;41.820;12.808;2024-01-27T01:06:22;9.60;99.90
32839;DHT22;19182;41.820;12.808;2024-01-27T01:08:48;9.60;99.90
32839;DHT22;19182;41.820;12.808;2024-01-27T01:11:14;9.60;99.90
32839;DHT22;19182;41.820;12.808;2024-01-27T01:13:40;9.60;99.90
32839;DHT22;19182;41.820;12.808;2024-01-27T01:16:07;9.60;99.90
32839;DHT22;19182;41.820;12.808;2024-01-27T01:18:34;9.60;99.90
32839;DHT22;19182;41.820;12.808;2024-01-27T01:20:59;9.60;99.90
32839;DHT22;19182;41.820;12.808;2024-01-27T01:23:26;9.60;99.90
32839;DHT22;19182;41.820;12.808;2024-01-27T01:25:52;9.60;99.90
32839;DHT22;19182;41.820;12.808;2024-01-27T01:28:18;9.60;99.90
32839;DHT22;19182;41.820;12.808;2024-01-27T01:30:47;9.50;99.90
32839;DHT22;19182;41.820;12.808;2024-01-27T01:33:15;9.50;99.90
32839;DHT22;19182;41.820;12.808;2024-01-27T01:35:42;9.60;99.90
32839;DHT22;19182;41.820;12.808;2024-01-27T01:38:08;9.60;99.90
32839;DHT22;19182;41.820;12.808;2024-01-27T01:40:33;9.60;99.90
32839;DHT22;19182;41.820;12.808;2024-01-27T01:42:59;9.60;99.90
32839;DHT22;19182;41.820;12.808;2024-01-27T01:45:25;9.50;99.90
32839;DHT22;19182;41.820;12.808;2024-01-27T01:47:52;9.50;99.90
32839;DHT22;19182;41.820;12.808;2024-01-27T01:50:18;9.50;99.90
32839;DHT22;19182;41.820;12.808;2024-01-27T01:52:44;9.50;99.90
32839;DHT22;19182;41.820;12.808;2024-01-27T01:55:11;9.50;99.90
32839;DHT22;19182;41.820;12.808;2024-01-27T01:57:38;9.50;99.90
32839;DHT22;19182;41.820;12.808;2024-01-27T02:00:04;9.50;99.90
32839;DHT22;19182;41.820;12.808;2024-01-27T02:02:31;9.50;99.90
32839;DHT22;19182;41.820;12.808;2024-01-27T02:04:57;9.40;99.90
32839;DHT22;19182;41.820;12.808;2024-01-27T02:07:23;9.50;99.90
32839;DHT22;19182;41.820;12.808;2024-01-27T02:09:51;9.50;99.90
32839;DHT22;19182;41.820;12.808;2024-01-27T02:12:17;9.50;99.90
32839;DHT22;19182;41.820;12.808;2024-01-27T02:14:48;9.50;99.90
32839;DHT22;19182;41.820;12.808;2024-01-27T02:17:15;9.50;99.90
32839;DHT22;19182;41.820;12.808;2024-01-27T02:19:41;9.40;99.90
32839;DHT22;19182;41.820;12.808;2024-01-27T02:22:07;9.50;99.90
32839;DHT22;19182;41.820;12.808;2024-01-27T02:24:35;9.50;99.90
32839;DHT22;19182;41.820;12.808;2024-01-27T02:27:02;9.40;99.90
32839;DHT22;19182;41.820;12.808;2024-01-27T02:29:30;9.50;99.90
32839;DHT22;19182;41.820;12.808;2024-01-27T02:31:56;9.50;99.90
32839;DHT22;19182;41.820;12.808;2024-01-27T02:34:24;9.50;99.90
32839;DHT22;19182;41.820;12.808;2024-01-27T02:36:51;9.50;99.90
32839;DHT22;19182;41.820;12.808;2024-01-27T02:39:17;9.40;99.90
32839;DHT22;19182;41.820;12.808;2024-01-27T02:41:43;9.40;99.90
32839;DHT22;19182;41.820;12.808;2024-01-27T02:44:09;9.40;99.90
32839;DHT22;19182;41.820;12.808;2024-01-27T02:46:35;9.40;99.90
32839;DHT22;19182;41.820;12.808;2024-01-27T02:49:02;9.40;99.90
32839;DHT22;19182;41.820;12.808;2024-01-27T02:51:30;9.30;99.90
32839;DHT22;19182;41.820;12.808;2024-01-27T02:53:56;9.20;99.90
32839;DHT22;19182;41.820;12.808;2024-01-27T02:56:22;9.40;99.90
32839;DHT22;19182;41.820;12.808;2024-01-27T02:58:47;9.40;99.90
32839;DHT22;19182;41.820;12.808;2024-01-27T03:01:14;9.40;99.90
32839;DHT22;19182;41.820;12.808;2024-01-27T03:03:39;9.40;99.90
32839;DHT22;19182;41.820;12.808;2024-01-27T03:06:05;9.30;99.90
32839;DHT22;19182;41.820;12.808;2024-01-27T03:08:31;9.40;99.90
32839;DHT22;19182;41.820;12.808;2024-01-27T03:10:57;9.30;99.90
32839;DHT22;19182;41.820;12.808;2024-01-27T03:13:23;9.40;99.90
32839;DHT22;19182;41.820;12.808;2024-01-27T03:15:49;9.40;99.90
32839;DHT22;19182;41.820;12.808;2024-01-27T03:18:15;9.40;99.90
32839;DHT22;19182;41.820;12.808;2024-01-27T03:20:41;9.30;99.90
32839;DHT22;19182;41.820;12.808;2024-01-27T03:23:07;9.40;99.90
32839;DHT22;19182;41.820;12.808;2024-01-27T03:25:33;9.30;99.90
32839;DHT22;19182;41.820;12.808;2024-01-27T03:28:02;9.30;99.90
32839;DHT22;19182;41.820;12.808;2024-01-27T03:30:28;9.40;99.90
32839;DHT22;19182;41.820;12.808;2024-01-27T03:32:55;9.30;99.90
32839;DHT22;19182;41.820;12.808;2024-01-27T03:35:21;9.30;99.90
32839;DHT22;19182;41.820;12.808;2024-01-27T03:37:47;9.30;99.90
32839;DHT22;19182;41.820;12.808;2024-01-27T03:40:16;9.30;99.90
32839;DHT22;19182;41.820;12.808;2024-01-27T03:42:43;9.20;99.90
32839;DHT22;19182;41.820;12.808;2024-01-27T03:45:09;9.30;99.90
32839;DHT22;19182;41.820;12.808;2024-01-27T03:47:36;9.30;99.90
32839;DHT22;19182;41.820;12.808;2024-01-27T03:50:03;9.30;99.90
32839;DHT22;19182;41.820;12.808;2024-01-27T03:52:30;9.30;99.90
32839;DHT22;19182;41.820;12.808;2024-01-27T03:54:56;9.20;99.90
32839;DHT22;19182;41.820;12.808;2024-01-27T03:57:22;9.20;99.90
32839;DHT22;19182;41.820;12.808;2024-01-27T03:59:48;9.10;99.90
32839;DHT22;19182;41.820;12.808;2024-01-27T04:02:14;9.20;99.90
32839;DHT22;19182;41.820;12.808;2024-01-27T04:04:39;9.20;99.90
32839;DHT22;19182;41.820;12.808;2024-01-27T04:07:07;9.20;99.90
32839;DHT22;19182;41.820;12.808;2024-01-27T04:09:33;9.20;99.90
32839;DHT22;19182;41.820;12.808;2024-01-27T04:12:02;9.20;99.90
32839;DHT22;19182;41.820;12.808;2024-01-27T04:14:28;9.10;99.90
32839;DHT22;19182;41.820;12.808;2024-01-27T04:16:56;9.20;99.90
32839;DHT22;19182;41.820;12.808;2024-01-27T04:19:23;9.20;99.90
32839;DHT22;19182;41.820;12.808;2024-01-27T04:21:50;9.20;99.90
32839;DHT22;19182;41.820;12.808;2024-01-27T04:24:16;9.20;99.90
32839;DHT22;19182;41.820;12.808;2024-01-27T04:26:41;9.10;99.90
32839;DHT22;19182;41.820;12.808;2024-01-27T04:29:07;9.20;99.90
32839;DHT22;19182;41.820;12.808;2024-01-27T04:31:33;9.20;99.90
32839;DHT22;19182;41.820;12.808;2024-01-27T04:34:00;9.10;99.90
32839;DHT22;19182;41.820;12.808;2024-01-27T04:36:29;9.10;99.90
32839;DHT22;19182;41.820;12.808;2024-01-27T04:38:56;9.10;99.90
32839;DHT22;19182;41.820;12.808;2024-01-27T04:41:23;9.20;99.90
32839;DHT22;19182;41.820;12.808;2024-01-27T04:43:49;9.20;99.90
32839;DHT22;19182;41.820;12.808;2024-01-27T04:46:15;9.20;99.90
32839;DHT22;19182;41.820;12.808;2024-01-27T04:48:41;9.10;99.90
32839;DHT22;19182;41.820;12.808;2024-01-27T04:51:07;9.10;99.90
32839;DHT22;19182;41.820;12.808;2024-01-27T04:53:34;9.10;99.90
32839;DHT22;19182;41.820;12.808;2024-01-27T04:56:01;9.10;99.90
32839;DHT22;19182;41.820;12.808;2024-01-27T04:58:27;9.10;99.90
32839;DHT22;19182;41.820;12.808;2024-01-27T05:00:53;9.10;99.90
32839;DHT22;19182;41.820;12.808;2024-01-27T05:03:19;9.20;99.90
32839;DHT22;19182;41.820;12.808;2024-01-27T05:05:44;9.20;99.90
32839;DHT22;19182;41.820;12.808;2024-01-27T05:08:12;9.20;99.90
32839;DHT22;19182;41.820;12.808;2024-01-27T05:10:38;9.20;99.90
32839;DHT22;19182;41.820;12.808;2024-01-27T05:13:04;9.20;99.90
32839;DHT22;19182;41.820;12.808;2024-01-27T05:15:31;9.20;99.90
32839;DHT22;19182;41.820;12.808;2024-01-27T05:17:57;9.10;99.90
32839;DHT22;19182;41.820;12.808;2024-01-27T05:20:22;9.10;99.90
32839;DHT22;19182;41.820;12.808;2024-01-27T05:22:48;9.10;99.90
32839;DHT22;19182;41.820;12.808;2024-01-27T05:25:14;9.10;99.90
32839;DHT22;19182;41.820;12.808;2024-01-27T05:27:42;9.00;99.90
32839;DHT22;19182;41.820;12.808;2024-01-27T05:30:08;9.00;99.90
32839;DHT22;19182;41.820;12.808;2024-01-27T05:32:35;8.90;99.90
32839;DHT22;19182;41.820;12.808;2024-01-27T05:35:01;8.90;99.90
32839;DHT22;19182;41.820;12.808;2024-01-27T05:37:27;8.90;99.90
32839;DHT22;19182;41.820;12.808;2024-01-27T05:39:57;8.80;99.90
32839;DHT22;19182;41.820;12.808;2024-01-27T05:42:23;8.80;99.90
32839;DHT22;19182;41.820;12.808;2024-01-27T05:44:48;8.80;99.90
32839;DHT22;19182;41.820;12.808;2024-01-27T05:47:19;8.80;99.90
32839;DHT22;19182;41.820;12.808;2024-01-27T05:49:45;9.80;99.90
32839;DHT22;19182;41.820;12.808;2024-01-27T05:52:11;8.70;99.90
32839;DHT22;19182;41.820;12.808;2024-01-27T05:54:40;8.70;99.90
32839;DHT22;19182;41.820;12.808;2024-01-27T05:57:06;8.70;99.90
32839;DHT22;19182;41.820;12.808;2024-01-27T06:02:01;8.70;99.90
32839;DHT22;19182;41.820;12.808;2024-01-27T06:04:27;8.80;99.90
32839;DHT22;19182;41.820;12.808;2024-01-27T06:06:53;8.80;99.90
32839;DHT22;19182;41.820;12.808;2024-01-27T06:09:19;8.80;99.90
32839;DHT22;19182;41.820;12.808;2024-01-27T06:11:46;8.80;99.90
32839;DHT22;19182;41.820;12.808;2024-01-27T06:14:12;8.70;99.90
32839;DHT22;19182;41.820;12.808;2024-01-27T06:16:37;8.70;99.90
32839;DHT22;19182;41.820;12.808;2024-01-27T06:19:03;8.70;99.90
32839;DHT22;19182;41.820;12.808;2024-01-27T06:21:29;8.70;99.90
32839;DHT22;19182;41.820;12.808;2024-01-27T06:23:56;8.70;99.90
32839;DHT22;19182;41.820;12.808;2024-01-27T06:26:23;8.70;99.90
32839;DHT22;19182;41.820;12.808;2024-01-27T06:28:50;8.80;99.90
32839;DHT22;19182;41.820;12.808;2024-01-27T06:31:16;8.80;99.90
32839;DHT22;19182;41.820;12.808;2024-01-27T06:33:42;8.80;99.90
32839;DHT22;19182;41.820;12.808;2024-01-27T06:36:08;8.80;99.90
32839;DHT22;19182;41.820;12.808;2024-01-27T06:38:37;8.70;99.90
32839;DHT22;19182;41.820;12.808;2024-01-27T06:41:03;8.70;99.90
32839;DHT22;19182;41.820;12.808;2024-01-27T06:43:29;8.80;99.90
32839;DHT22;19182;41.820;12.808;2024-01-27T06:45:55;8.80;99.90
32839;DHT22;19182;41.820;12.808;2024-01-27T06:48:22;8.70;99.90
32839;DHT22;19182;41.820;12.808;2024-01-27T06:50:51;8.70;99.90
32839;DHT22;19182;41.820;12.808;2024-01-27T06:56:06;8.70;99.90
32839;DHT22;19182;41.820;12.808;2024-01-27T06:58:33;8.70;99.90
32839;DHT22;19182;41.820;12.808;2024-01-27T07:01:00;8.70;99.90
32839;DHT22;19182;41.820;12.808;2024-01-27T07:03:26;8.80;99.90
32839;DHT22;19182;41.820;12.808;2024-01-27T07:05:52;8.80;99.90
32839;DHT22;19182;41.820;12.808;2024-01-27T07:08:17;8.80;99.90
32839;DHT22;19182;41.820;12.808;2024-01-27T07:10:43;8.90;99.90
32839;DHT22;19182;41.820;12.808;2024-01-27T07:13:10;9.00;99.90
32839;DHT22;19182;41.820;12.808;2024-01-27T07:15:37;9.00;99.90
32839;DHT22;19182;41.820;12.808;2024-01-27T07:18:03;9.00;99.90
32839;DHT22;19182;41.820;12.808;2024-01-27T07:20:29;9.10;99.90
32839;DHT22;19182;41.820;12.808;2024-01-27T07:22:55;9.20;99.90
32839;DHT22;19182;41.820;12.808;2024-01-27T07:25:21;9.10;99.90
32839;DHT22;19182;41.820;12.808;2024-01-27T07:27:47;9.20;99.90
32839;DHT22;19182;41.820;12.808;2024-01-27T07:30:14;9.40;99.90
32839;DHT22;19182;41.820;12.808;2024-01-27T07:32:42;9.40;99.90
32839;DHT22;19182;41.820;12.808;2024-01-27T07:35:10;9.50;99.90
32839;DHT22;19182;41.820;12.808;2024-01-27T07:37:37;9.60;99.90
32839;DHT22;19182;41.820;12.808;2024-01-27T07:40:05;9.70;99.90
32839;DHT22;19182;41.820;12.808;2024-01-27T07:42:31;9.80;99.90
32839;DHT22;19182;41.820;12.808;2024-01-27T07:44:56;9.90;99.90
32839;DHT22;19182;41.820;12.808;2024-01-27T07:47:23;10.00;99.90
32839;DHT22;19182;41.820;12.808;2024-01-27T07:49:50;10.80;99.90
32839;DHT22;19182;41.820;12.808;2024-01-27T07:52:17;11.70;99.90
32839;DHT22;19182;41.820;12.808;2024-01-27T07:54:45;12.40;99.90
32839;DHT22;19182;41.820;12.808;2024-01-27T07:57:11;13.60;99.90
32839;DHT22;19182;41.820;12.808;2024-01-27T07:59:39;15.60;99.90
32839;DHT22;19182;41.820;12.808;2024-01-27T08:02:05;17.20;99.90
32839;DHT22;19182;41.820;12.808;2024-01-27T08:04:31;18.90;99.90
32839;DHT22;19182;41.820;12.808;2024-01-27T08:06:57;20.10;99.90
32839;DHT22;19182;41.820;12.808;2024-01-27T08:09:23;20.90;99.90
32839;DHT22;19182;41.820;12.808;2024-01-27T08:11:50;21.10;99.90
32839;DHT22;19182;41.820;12.808;2024-01-27T08:14:20;20.40;99.90
32839;DHT22;19182;41.820;12.808;2024-01-27T08:16:46;19.80;99.90
32839;DHT22;19182;41.820;12.808;2024-01-27T08:19:13;18.30;99.90
32839;DHT22;19182;41.820;12.808;2024-01-27T08:21:46;18.50;99.90
32839;DHT22;19182;41.820;12.808;2024-01-27T08:24:15;19.40;99.90
32839;DHT22;19182;41.820;12.808;2024-01-27T08:26:44;21.00;99.90
32839;DHT22;19182;41.820;12.808;2024-01-27T08:29:12;23.60;99.90
32839;DHT22;19182;41.820;12.808;2024-01-27T08:31:38;23.60;99.90
32839;DHT22;19182;41.820;12.808;2024-01-27T08:34:04;24.70;99.90
32839;DHT22;19182;41.820;12.808;2024-01-27T08:36:30;24.90;99.90
32839;DHT22;19182;41.820;12.808;2024-01-27T08:38:56;22.80;99.90
32839;DHT22;19182;41.820;12.808;2024-01-27T08:41:22;21.50;99.90
32839;DHT22;19182;41.820;12.808;2024-01-27T08:43:49;21.30;99.90
32839;DHT22;19182;41.820;12.808;2024-01-27T08:46:15;22.60;99.90
32839;DHT22;19182;41.820;12.808;2024-01-27T08:48:43;23.50;99.90
32839;DHT22;19182;41.820;12.808;2024-01-27T08:51:09;24.70;99.90
32839;DHT22;19182;41.820;12.808;2024-01-27T08:53:36;25.50;97.50
32839;DHT22;19182;41.820;12.808;2024-01-27T08:56:02;24.70;97.20
32839;DHT22;19182;41.820;12.808;2024-01-27T08:58:29;25.60;96.80
32839;DHT22;19182;41.820;12.808;2024-01-27T09:00:58;26.80;94.80
32839;DHT22;19182;41.820;12.808;2024-01-27T09:03:26;28.30;89.80
32839;DHT22;19182;41.820;12.808;2024-01-27T09:05:52;28.40;88.60
32839;DHT22;19182;41.820;12.808;2024-01-27T09:08:18;28.50;80.30
32839;DHT22;19182;41.820;12.808;2024-01-27T09:10:44;29.00;79.90
32839;DHT22;19182;41.820;12.808;2024-01-27T09:13:11;29.40;77.90
32839;DHT22;19182;41.820;12.808;2024-01-27T09:15:36;29.40;76.20
32839;DHT22;19182;41.820;12.808;2024-01-27T09:18:02;30.20;72.70
32839;DHT22;19182;41.820;12.808;2024-01-27T09:20:31;30.60;70.90
32839;DHT22;19182;41.820;12.808;2024-01-27T09:22:58;31.00;68.70
32839;DHT22;19182;41.820;12.808;2024-01-27T09:25:25;31.00;66.90
32839;DHT22;19182;41.820;12.808;2024-01-27T09:27:53;30.70;66.20
32839;DHT22;19182;41.820;12.808;2024-01-27T09:30:19;30.90;66.30
32839;DHT22;19182;41.820;12.808;2024-01-27T09:32:44;30.80;68.00
32839;DHT22;19182;41.820;12.808;2024-01-27T09:35:11;30.90;66.00
32839;DHT22;19182;41.820;12.808;2024-01-27T09:37:40;30.20;64.60
32839;DHT22;19182;41.820;12.808;2024-01-27T09:40:10;30.70;65.80
32839;DHT22;19182;41.820;12.808;2024-01-27T09:42:38;31.50;63.40
32839;DHT22;19182;41.820;12.808;2024-01-27T09:45:09;31.90;61.70
32839;DHT22;19182;41.820;12.808;2024-01-27T09:47:36;31.00;61.60
32839;DHT22;19182;41.820;12.808;2024-01-27T09:50:04;28.80;67.00
32839;DHT22;19182;41.820;12.808;2024-01-27T09:52:30;29.80;64.70
32839;DHT22;19182;41.820;12.808;2024-01-27T09:55:00;31.00;62.40
32839;DHT22;19182;41.820;12.808;2024-01-27T09:57:27;29.30;63.90
32839;DHT22;19182;41.820;12.808;2024-01-27T09:59:56;27.20;68.80
32839;DHT22;19182;41.820;12.808;2024-01-27T10:02:24;27.10;70.30
32839;DHT22;19182;41.820;12.808;2024-01-27T10:04:51;27.50;68.80
32839;DHT22;19182;41.820;12.808;2024-01-27T10:07:18;28.10;68.20
32839;DHT22;19182;41.820;12.808;2024-01-27T10:09:48;29.60;66.10
32839;DHT22;19182;41.820;12.808;2024-01-27T10:12:14;30.10;63.00
32839;DHT22;19182;41.820;12.808;2024-01-27T10:14:42;29.80;64.70
32839;DHT22;19182;41.820;12.808;2024-01-27T10:17:20;29.80;65.00
32839;DHT22;19182;41.820;12.808;2024-01-27T10:19:58;30.30;62.10
32839;DHT22;19182;41.820;12.808;2024-01-27T10:22:26;29.00;63.70
32839;DHT22;19182;41.820;12.808;2024-01-27T10:24:53;29.00;65.40
32839;DHT22;19182;41.820;12.808;2024-01-27T10:27:25;28.80;66.70
32839;DHT22;19182;41.820;12.808;2024-01-27T10:29:54;29.20;64.10
32839;DHT22;19182;41.820;12.808;2024-01-27T10:32:23;30.60;63.50
32839;DHT22;19182;41.820;12.808;2024-01-27T10:35:10;29.20;64.50
32839;DHT22;19182;41.820;12.808;2024-01-27T10:37:37;31.30;61.90
32839;DHT22;19182;41.820;12.808;2024-01-27T10:40:05;30.40;62.60
32839;DHT22;19182;41.820;12.808;2024-01-27T10:42:36;29.30;64.50
32839;DHT22;19182;41.820;12.808;2024-01-27T10:45:10;30.90;60.60
32839;DHT22;19182;41.820;12.808;2024-01-27T10:47:38;31.60;60.20
32839;DHT22;19182;41.820;12.808;2024-01-27T10:50:08;30.80;60.00
32839;DHT22;19182;41.820;12.808;2024-01-27T10:52:42;30.80;61.70
32839;DHT22;19182;41.820;12.808;2024-01-27T10:55:17;31.60;59.10
32839;DHT22;19182;41.820;12.808;2024-01-27T10:57:46;31.90;58.90
32839;DHT22;19182;41.820;12.808;2024-01-27T11:00:14;31.80;60.10
32839;DHT22;19182;41.820;12.808;2024-01-27T11:02:43;32.10;57.10
32839;DHT22;19182;41.820;12.808;2024-01-27T11:05:11;35.50;60.70
32839;DHT22;19182;41.820;12.808;2024-01-27T11:07:39;31.90;58.80
32839;DHT22;19182;41.820;12.808;2024-01-27T11:10:09;33.00;58.90
32839;DHT22;19182;41.820;12.808;2024-01-27T11:12:35;33.40;55.80
32839;DHT22;19182;41.820;12.808;2024-01-27T11:15:02;33.20;57.40
32839;DHT22;19182;41.820;12.808;2024-01-27T11:17:28;34.30;55.80
32839;DHT22;19182;41.820;12.808;2024-01-27T11:19:57;33.70;54.70
32839;DHT22;19182;41.820;12.808;2024-01-27T11:22:27;33.00;55.40
32839;DHT22;19182;41.820;12.808;2024-01-27T11:25:16;32.90;56.00
32839;DHT22;19182;41.820;12.808;2024-01-27T11:27:44;34.60;55.50
32839;DHT22;19182;41.820;12.808;2024-01-27T11:30:31;34.20;53.20
32839;DHT22;19182;41.820;12.808;2024-01-27T11:33:02;32.30;56.80
32839;DHT22;19182;41.820;12.808;2024-01-27T11:35:28;32.70;56.40
32839;DHT22;19182;41.820;12.808;2024-01-27T11:37:54;32.50;56.50
32839;DHT22;19182;41.820;12.808;2024-01-27T11:40:20;33.50;56.80
32839;DHT22;19182;41.820;12.808;2024-01-27T11:43:02;33.50;56.40
32839;DHT22;19182;41.820;12.808;2024-01-27T11:45:31;34.90;53.20
32839;DHT22;19182;41.820;12.808;2024-01-27T11:47:58;34.20;53.90
32839;DHT22;19182;41.820;12.808;2024-01-27T11:50:25;34.90;52.80
32839;DHT22;19182;41.820;12.808;2024-01-27T11:52:53;34.60;53.90
32839;DHT22;19182;41.820;12.808;2024-01-27T11:55:20;32.90;54.10
32839;DHT22;19182;41.820;12.808;2024-01-27T11:57:46;33.10;54.50
32839;DHT22;19182;41.820;12.808;2024-01-27T12:00:14;33.00;54.70
32839;DHT22;19182;41.820;12.808;2024-01-27T12:02:44;37.00;56.40
32839;DHT22;19182;41.820;12.808;2024-01-27T12:05:10;31.50;57.10
32839;DHT22;19182;41.820;12.808;2024-01-27T12:07:36;30.80;58.00
32839;DHT22;19182;41.820;12.808;2024-01-27T12:10:03;28.30;61.60
32839;DHT22;19182;41.820;12.808;2024-01-27T12:12:29;28.00;63.70
32839;DHT22;19182;41.820;12.808;2024-01-27T12:14:56;28.60;65.70
32839;DHT22;19182;41.820;12.808;2024-01-27T12:17:24;26.30;66.50
32839;DHT22;19182;41.820;12.808;2024-01-27T12:19:55;25.00;71.30
32839;DHT22;19182;41.820;12.808;2024-01-27T12:22:31;24.80;74.20
32839;DHT22;19182;41.820;12.808;2024-01-27T12:25:10;24.20;74.00
32839;DHT22;19182;41.820;12.808;2024-01-27T12:32:32;22.70;80.00
32839;DHT22;19182;41.820;12.808;2024-01-27T12:37:27;22.80;78.90
32839;DHT22;19182;41.820;12.808;2024-01-27T12:39:55;22.70;82.50
32839;DHT22;19182;41.820;12.808;2024-01-27T12:47:20;21.60;85.90
32839;DHT22;19182;41.820;12.808;2024-01-27T13:06:57;20.70;93.50
32839;DHT22;19182;41.820;12.808;2024-01-27T13:11:50;20.70;93.20
32839;DHT22;19182;41.820;12.808;2024-01-27T13:14:18;20.00;96.60
32839;DHT22;19182;41.820;12.808;2024-01-27T13:16:47;20.10;97.20
32839;DHT22;19182;41.820;12.808;2024-01-27T13:19:13;20.00;97.90
32839;DHT22;19182;41.820;12.808;2024-01-27T13:21:38;20.00;97.10
32839;DHT22;19182;41.820;12.808;2024-01-27T13:26:34;19.90;97.40
32839;DHT22;19182;41.820;12.808;2024-01-27T13:29:06;19.10;99.80
32839;DHT22;19182;41.820;12.808;2024-01-27T13:33:59;19.00;99.90
32839;DHT22;19182;41.820;12.808;2024-01-27T13:36:28;18.90;99.90
32839;DHT22;19182;41.820;12.808;2024-01-27T13:38:54;18.70;99.90
32839;DHT22;19182;41.820;12.808;2024-01-27T13:41:21;18.80;99.90
32839;DHT22;19182;41.820;12.808;2024-01-27T14:01:09;17.10;99.90
32839;DHT22;19182;41.820;12.808;2024-01-27T14:10:57;16.60;99.90
32839;DHT22;19182;41.820;12.808;2024-01-27T14:15:57;16.60;99.90
32839;DHT22;19182;41.820;12.808;2024-01-27T14:18:23;16.70;99.90
32839;DHT22;19182;41.820;12.808;2024-01-27T14:20:50;16.40;99.90
32839;DHT22;19182;41.820;12.808;2024-01-27T14:23:18;16.40;99.90
32839;DHT22;19182;41.820;12.808;2024-01-27T14:30:43;16.30;99.90
32839;DHT22;19182;41.820;12.808;2024-01-27T14:33:11;16.00;99.90
32839;DHT22;19182;41.820;12.808;2024-01-27T14:35:37;16.00;99.90
32839;DHT22;19182;41.820;12.808;2024-01-27T14:38:03;16.00;99.90
32839;DHT22;19182;41.820;12.808;2024-01-27T14:45:47;15.70;99.90
32839;DHT22;19182;41.820;12.808;2024-01-27T14:48:13;15.70;99.90
32839;DHT22;19182;41.820;12.808;2024-01-27T14:57:59;15.40;99.90
32839;DHT22;19182;41.820;12.808;2024-01-27T15:05:17;15.30;99.90
32839;DHT22;19182;41.820;12.808;2024-01-27T15:07:44;15.20;99.90
32839;DHT22;19182;41.820;12.808;2024-01-27T15:10:15;15.20;99.90
32839;DHT22;19182;41.820;12.808;2024-01-27T15:12:42;15.10;99.90
32839;DHT22;19182;41.820;12.808;2024-01-27T15:15:11;15.00;99.90
32839;DHT22;19182;41.820;12.808;2024-01-27T15:20:05;14.80;99.90
32839;DHT22;19182;41.820;12.808;2024-01-27T15:25:00;14.60;99.90
32839;DHT22;19182;41.820;12.808;2024-01-27T15:32:19;14.30;99.90
32839;DHT22;19182;41.820;12.808;2024-01-27T15:34:47;14.20;99.90
32839;DHT22;19182;41.820;12.808;2024-01-27T15:37:16;14.00;99.90
32839;DHT22;19182;41.820;12.808;2024-01-27T15:39:45;14.00;99.90
32839;DHT22;19182;41.820;12.808;2024-01-27T15:44:39;13.90;99.90
32839;DHT22;19182;41.820;12.808;2024-01-27T15:49:33;13.60;99.90
32839;DHT22;19182;41.820;12.808;2024-01-27T15:56:53;13.40;99.90
32839;DHT22;19182;41.820;12.808;2024-01-27T15:59:20;13.30;99.90
32839;DHT22;19182;41.820;12.808;2024-01-27T16:01:46;13.20;99.90
32839;DHT22;19182;41.820;12.808;2024-01-27T16:04:13;12.90;99.90
32839;DHT22;19182;41.820;12.808;2024-01-27T16:06:40;12.90;99.90
32839;DHT22;19182;41.820;12.808;2024-01-27T16:16:26;12.40;99.90
32839;DHT22;19182;41.820;12.808;2024-01-27T16:23:47;11.90;99.90
32839;DHT22;19182;41.820;12.808;2024-01-27T16:38:30;11.20;99.90
32839;DHT22;19182;41.820;12.808;2024-01-27T16:55:42;10.50;99.90
32839;DHT22;19182;41.820;12.808;2024-01-27T16:58:08;10.40;99.90
32839;DHT22;19182;41.820;12.808;2024-01-27T17:07:55;10.10;99.90
32839;DHT22;19182;41.820;12.808;2024-01-27T17:17:52;9.70;99.90
32839;DHT22;19182;41.820;12.808;2024-01-27T17:27:37;9.20;99.90
32839;DHT22;19182;41.820;12.808;2024-01-27T17:44:46;8.60;99.90
32839;DHT22;19182;41.820;12.808;2024-01-27T17:47:12;8.60;99.90
32839;DHT22;19182;41.820;12.808;2024-01-27T17:56:58;8.30;99.90
32839;DHT22;19182;41.820;12.808;2024-01-27T18:01:52;8.50;99.90
32839;DHT22;19182;41.820;12.808;2024-01-27T18:06:43;8.20;99.90
32839;DHT22;19182;41.820;12.808;2024-01-27T18:09:10;8.10;99.90
32839;DHT22;19182;41.820;12.808;2024-01-27T18:14:02;7.90;99.90
32839;DHT22;19182;41.820;12.808;2024-01-27T18:16:28;7.90;99.90
32839;DHT22;19182;41.820;12.808;2024-01-27T18:28:41;7.60;99.90
32839;DHT22;19182;41.820;12.808;2024-01-27T18:31:08;7.60;99.90
32839;DHT22;19182;41.820;12.808;2024-01-27T18:36:00;7.60;99.90
32839;DHT22;19182;41.820;12.808;2024-01-27T18:43:25;7.40;99.90
32839;DHT22;19182;41.820;12.808;2024-01-27T18:45:53;7.40;99.90
32839;DHT22;19182;41.820;12.808;2024-01-27T18:48:20;7.40;99.90
32839;DHT22;19182;41.820;12.808;2024-01-27T18:53:16;7.40;99.90
32839;DHT22;19182;41.820;12.808;2024-01-27T18:55:41;7.40;99.90
32839;DHT22;19182;41.820;12.808;2024-01-27T19:00:35;7.40;99.90
32839;DHT22;19182;41.820;12.808;2024-01-27T19:05:34;7.40;99.90
32839;DHT22;19182;41.820;12.808;2024-01-27T19:08:00;7.50;99.90
32839;DHT22;19182;41.820;12.808;2024-01-27T19:12:53;7.50;99.90